createdAt,value
2023-12-18T00:00:07.667Z,20.60
2023-12-18T00:00:21.732Z,20.59
2023-12-18T00:00:35.806Z,20.59
2023-12-18T00:00:50.316Z,20.59
2023-12-18T00:01:18.477Z,20.59
2023-12-18T00:01:32.611Z,20.59
2023-12-18T00:01:46.650Z,20.60
2023-12-18T00:02:00.648Z,20.59
2023-12-18T00:02:28.648Z,20.59
2023-12-18T00:02:42.697Z,20.60
2023-12-18T00:02:56.780Z,20.60
2023-12-18T00:03:10.893Z,20.60
2023-12-18T00:03:38.964Z,20.60
2023-12-18T00:03:53.178Z,20.60
2023-12-18T00:04:07.384Z,20.61
2023-12-18T00:04:21.615Z,20.61
2023-12-18T00:04:49.706Z,20.61
2023-12-18T00:05:03.730Z,20.61
2023-12-18T00:05:17.753Z,20.60
2023-12-18T00:05:31.839Z,20.60
2023-12-18T00:05:59.955Z,20.62
2023-12-18T00:06:13.983Z,20.62
2023-12-18T00:06:28.078Z,20.61
2023-12-18T00:06:42.145Z,20.61
2023-12-18T00:07:10.186Z,20.61
2023-12-18T00:07:24.193Z,20.60
2023-12-18T00:07:38.195Z,20.60
2023-12-18T00:07:52.242Z,20.61
2023-12-18T00:08:20.198Z,20.61
2023-12-18T00:08:34.182Z,20.61
2023-12-18T00:08:48.181Z,20.62
2023-12-18T00:09:02.202Z,20.61
2023-12-18T00:09:30.210Z,20.62
2023-12-18T00:09:44.275Z,20.62
2023-12-18T00:09:58.296Z,20.61
2023-12-18T00:10:12.278Z,20.61
2023-12-18T00:10:40.253Z,20.61
2023-12-18T00:10:54.238Z,20.60
2023-12-18T00:11:08.224Z,20.61
2023-12-18T00:11:22.198Z,20.62
2023-12-18T00:11:50.157Z,20.62
2023-12-18T00:12:04.172Z,20.61
2023-12-18T00:12:18.273Z,20.61
2023-12-18T00:12:32.327Z,20.62
2023-12-18T00:13:00.337Z,20.61
2023-12-18T00:13:14.322Z,20.61
2023-12-18T00:13:28.320Z,20.60
2023-12-18T00:13:42.320Z,20.62
2023-12-18T00:14:10.301Z,20.60
2023-12-18T00:14:24.296Z,20.61
2023-12-18T00:14:38.281Z,20.62
2023-12-18T00:14:52.290Z,20.62
2023-12-18T00:15:20.241Z,20.61
2023-12-18T00:15:34.313Z,20.61
2023-12-18T00:15:48.444Z,20.62
2023-12-18T00:16:02.464Z,20.63
2023-12-18T00:16:30.442Z,20.62
2023-12-18T00:16:44.438Z,20.64
2023-12-18T00:16:58.431Z,20.62
2023-12-18T00:17:12.430Z,20.63
2023-12-18T00:17:40.810Z,20.62
2023-12-18T00:17:55.216Z,20.62
2023-12-18T00:18:09.555Z,20.61
2023-12-18T00:18:23.709Z,20.61
2023-12-18T00:18:51.922Z,20.61
2023-12-18T00:19:06.210Z,20.61
2023-12-18T00:19:20.353Z,20.62
2023-12-18T00:19:34.464Z,20.61
2023-12-18T00:20:05.049Z,20.63
2023-12-18T00:20:17.011Z,20.62
2023-12-18T00:20:31.004Z,20.63
2023-12-18T00:20:44.995Z,20.61
2023-12-18T00:20:58.996Z,20.61
2023-12-18T00:21:13.055Z,20.60
2023-12-18T00:21:27.050Z,20.59
2023-12-18T00:21:41.111Z,20.61
2023-12-18T00:21:55.214Z,20.61
2023-12-18T00:22:23.182Z,20.60
2023-12-18T00:22:37.158Z,20.59
2023-12-18T00:22:51.156Z,20.60
2023-12-18T00:23:05.151Z,20.60
2023-12-18T00:23:33.096Z,20.60
2023-12-18T00:23:47.101Z,20.59
2023-12-18T00:24:01.098Z,20.60
2023-12-18T00:24:15.210Z,20.61
2023-12-18T00:24:43.219Z,20.61
2023-12-18T00:24:57.215Z,20.61
2023-12-18T00:25:11.216Z,20.62
2023-12-18T00:25:25.200Z,20.62
2023-12-18T00:25:53.156Z,20.63
2023-12-18T00:26:07.156Z,20.62
2023-12-18T00:26:21.152Z,20.61
2023-12-18T00:26:35.141Z,20.62
2023-12-18T00:27:03.355Z,20.61
2023-12-18T00:27:17.619Z,20.61
2023-12-18T00:27:31.788Z,20.61
2023-12-18T00:27:47.676Z,20.60
2023-12-18T00:28:13.561Z,20.60
2023-12-18T00:28:27.578Z,20.60
2023-12-18T00:28:41.556Z,20.60
2023-12-18T00:28:55.567Z,20.62
2023-12-18T00:29:23.526Z,20.61
2023-12-18T00:29:37.507Z,20.61
2023-12-18T00:29:51.517Z,20.61
2023-12-18T00:30:05.598Z,20.61
2023-12-18T00:30:33.768Z,20.60
2023-12-18T00:30:47.907Z,20.61
2023-12-18T00:31:01.987Z,20.61
2023-12-18T00:31:16.093Z,20.61
2023-12-18T00:31:44.100Z,20.61
2023-12-18T00:31:58.093Z,20.61
2023-12-18T00:32:12.085Z,20.60
2023-12-18T00:32:26.074Z,20.60
2023-12-18T00:32:54.056Z,20.61
2023-12-18T00:33:08.189Z,20.61
2023-12-18T00:33:22.418Z,20.60
2023-12-18T00:33:36.565Z,20.59
2023-12-18T00:33:50.725Z,20.60
2023-12-18T00:34:04.989Z,20.61
2023-12-18T00:34:19.185Z,20.62
2023-12-18T00:34:33.296Z,20.61
2023-12-18T00:34:47.430Z,20.61
2023-12-18T00:35:15.414Z,20.61
2023-12-18T00:35:29.412Z,20.62
2023-12-18T00:35:43.390Z,20.62
2023-12-18T00:35:57.418Z,20.61
2023-12-18T00:36:25.421Z,20.60
2023-12-18T00:36:39.497Z,20.61
2023-12-18T00:36:53.518Z,20.61
2023-12-18T00:37:07.491Z,20.59
2023-12-18T00:37:35.456Z,20.61
2023-12-18T00:37:49.446Z,20.61
2023-12-18T00:38:03.426Z,20.61
2023-12-18T00:38:17.420Z,20.61
2023-12-18T00:38:45.389Z,20.61
2023-12-18T00:38:59.453Z,20.60
2023-12-18T00:39:13.473Z,20.61
2023-12-18T00:39:27.561Z,20.60
2023-12-18T00:39:55.586Z,20.60
2023-12-18T00:40:09.578Z,20.60
2023-12-18T00:40:23.571Z,20.60
2023-12-18T00:40:37.566Z,20.59
2023-12-18T00:41:05.536Z,20.59
2023-12-18T00:41:19.524Z,20.59
2023-12-18T00:41:33.511Z,20.58
2023-12-18T00:41:47.521Z,20.59
2023-12-18T00:42:15.512Z,20.59
2023-12-18T00:42:29.557Z,20.59
2023-12-18T00:42:43.636Z,20.60
2023-12-18T00:42:57.642Z,20.59
2023-12-18T00:43:25.575Z,20.59
2023-12-18T00:43:39.565Z,20.59
2023-12-18T00:43:53.572Z,20.59
2023-12-18T00:44:07.639Z,20.60
2023-12-18T00:44:35.575Z,20.59
2023-12-18T00:44:49.548Z,20.59
2023-12-18T00:45:03.636Z,20.60
2023-12-18T00:45:17.733Z,20.59
2023-12-18T00:45:45.803Z,20.59
2023-12-18T00:45:59.831Z,20.60
2023-12-18T00:46:13.813Z,20.59
2023-12-18T00:46:27.806Z,20.59
2023-12-18T00:46:55.769Z,20.59
2023-12-18T00:47:09.743Z,20.59
2023-12-18T00:47:23.765Z,20.59
2023-12-18T00:47:37.796Z,20.59
2023-12-18T00:48:05.846Z,20.58
2023-12-18T00:48:20.048Z,20.59
2023-12-18T00:48:34.174Z,20.58
2023-12-18T00:48:48.318Z,20.59
2023-12-18T00:49:16.619Z,20.59
2023-12-18T00:49:30.816Z,20.60
2023-12-18T00:49:44.992Z,20.59
2023-12-18T00:49:59.085Z,20.59
2023-12-18T00:50:27.298Z,20.59
2023-12-18T00:50:41.564Z,20.59
2023-12-18T00:50:55.595Z,20.59
2023-12-18T00:51:09.630Z,20.59
2023-12-18T00:51:37.657Z,20.59
2023-12-18T00:51:51.770Z,20.59
2023-12-18T00:52:05.758Z,20.58
2023-12-18T00:52:19.755Z,20.58
2023-12-18T00:52:47.761Z,20.59
2023-12-18T00:53:01.783Z,20.58
2023-12-18T00:53:15.762Z,20.57
2023-12-18T00:53:29.772Z,20.57
2023-12-18T00:53:57.746Z,20.59
2023-12-18T00:54:11.763Z,20.58
2023-12-18T00:54:25.819Z,20.57
2023-12-18T00:54:39.894Z,20.58
2023-12-18T00:55:07.933Z,20.58
2023-12-18T00:55:22.008Z,20.59
2023-12-18T00:55:36.087Z,20.58
2023-12-18T00:55:50.121Z,20.59
2023-12-18T00:56:18.161Z,20.59
2023-12-18T00:56:32.153Z,20.59
2023-12-18T00:56:46.145Z,20.59
2023-12-18T00:57:00.165Z,20.57
2023-12-18T00:57:28.246Z,20.58
2023-12-18T00:57:42.615Z,20.57
2023-12-18T00:57:56.847Z,20.57
2023-12-18T00:58:10.884Z,20.59
2023-12-18T00:58:38.849Z,20.58
2023-12-18T00:58:52.850Z,20.57
2023-12-18T00:59:06.866Z,20.58
2023-12-18T00:59:20.850Z,20.57
2023-12-18T00:59:34.837Z,20.58
2023-12-18T00:59:48.831Z,20.58
2023-12-18T01:00:02.918Z,20.56
2023-12-18T01:00:17.068Z,20.58
2023-12-18T01:00:31.135Z,20.57
2023-12-18T01:00:59.201Z,20.57
2023-12-18T01:01:13.309Z,20.57
2023-12-18T01:01:27.353Z,20.57
2023-12-18T01:01:41.377Z,20.57
2023-12-18T01:02:09.323Z,20.55
2023-12-18T01:02:24.061Z,20.54
2023-12-18T01:02:38.061Z,20.55
2023-12-18T01:02:52.057Z,20.55
2023-12-18T01:03:20.192Z,20.53
2023-12-18T01:03:34.305Z,20.54
2023-12-18T01:03:48.444Z,20.55
2023-12-18T01:04:02.518Z,20.54
2023-12-18T01:04:30.718Z,20.55
2023-12-18T01:04:44.805Z,20.55
2023-12-18T01:04:58.812Z,20.55
2023-12-18T01:05:12.818Z,20.57
2023-12-18T01:05:40.776Z,20.56
2023-12-18T01:05:54.765Z,20.56
2023-12-18T01:06:08.801Z,20.58
2023-12-18T01:06:22.866Z,20.56
2023-12-18T01:06:50.840Z,20.56
2023-12-18T01:07:04.839Z,20.57
2023-12-18T01:07:18.825Z,20.57
2023-12-18T01:07:32.814Z,20.58
2023-12-18T01:07:46.820Z,20.58
2023-12-18T01:08:00.831Z,20.59
2023-12-18T01:08:14.839Z,20.58
2023-12-18T01:08:28.832Z,20.57
2023-12-18T01:08:42.833Z,20.58
2023-12-18T01:09:10.867Z,20.58
2023-12-18T01:09:24.963Z,20.57
2023-12-18T01:09:39.116Z,20.58
2023-12-18T01:09:53.162Z,20.59
2023-12-18T01:10:21.123Z,20.58
2023-12-18T01:10:35.200Z,20.58
2023-12-18T01:10:49.192Z,20.59
2023-12-18T01:11:03.183Z,20.58
2023-12-18T01:11:31.166Z,20.58
2023-12-18T01:11:45.144Z,20.58
2023-12-18T01:11:59.134Z,20.59
2023-12-18T01:12:13.166Z,20.58
2023-12-18T01:12:41.328Z,20.58
2023-12-18T01:12:55.398Z,20.58
2023-12-18T01:13:09.386Z,20.59
2023-12-18T01:13:23.392Z,20.59
2023-12-18T01:13:51.381Z,20.58
2023-12-18T01:14:05.377Z,20.60
2023-12-18T01:14:19.375Z,20.60
2023-12-18T01:14:33.352Z,20.59
2023-12-18T01:15:01.357Z,20.59
2023-12-18T01:15:15.391Z,20.58
2023-12-18T01:15:29.447Z,20.59
2023-12-18T01:15:43.530Z,20.59
2023-12-18T01:16:11.551Z,20.59
2023-12-18T01:16:25.561Z,20.58
2023-12-18T01:16:39.554Z,20.57
2023-12-18T01:16:53.545Z,20.58
2023-12-18T01:17:32.425Z,20.58
2023-12-18T01:17:36.634Z,20.57
2023-12-18T01:17:48.771Z,20.57
2023-12-18T01:18:03.208Z,20.58
2023-12-18T01:18:31.304Z,20.59
2023-12-18T01:18:45.491Z,20.59
2023-12-18T01:18:59.649Z,20.58
2023-12-18T01:19:13.942Z,20.59
2023-12-18T01:19:42.151Z,20.58
2023-12-18T01:19:56.234Z,20.56
2023-12-18T01:20:10.258Z,20.58
2023-12-18T01:20:24.255Z,20.57
2023-12-18T01:20:52.215Z,20.58
2023-12-18T01:21:06.213Z,20.59
2023-12-18T01:21:20.226Z,20.59
2023-12-18T01:21:34.317Z,20.58
2023-12-18T01:22:02.331Z,20.58
2023-12-18T01:22:16.324Z,20.57
2023-12-18T01:22:30.333Z,20.58
2023-12-18T01:22:47.005Z,20.58
2023-12-18T01:23:12.153Z,20.59
2023-12-18T01:23:26.148Z,20.59
2023-12-18T01:23:40.139Z,20.59
2023-12-18T01:23:54.194Z,20.59
2023-12-18T01:24:22.168Z,20.59
2023-12-18T01:24:36.202Z,20.59
2023-12-18T01:24:50.220Z,20.59
2023-12-18T01:25:04.220Z,20.58
2023-12-18T01:25:32.194Z,20.57
2023-12-18T01:25:46.186Z,20.56
2023-12-18T01:26:00.183Z,20.56
2023-12-18T01:26:14.161Z,20.57
2023-12-18T01:26:42.117Z,20.57
2023-12-18T01:26:56.106Z,20.56
2023-12-18T01:27:10.152Z,20.56
2023-12-18T01:27:24.175Z,20.56
2023-12-18T01:27:52.167Z,20.54
2023-12-18T01:28:06.188Z,20.55
2023-12-18T01:28:20.196Z,20.54
2023-12-18T01:28:34.184Z,20.55
2023-12-18T01:29:02.146Z,20.55
2023-12-18T01:29:16.141Z,20.55
2023-12-18T01:29:30.140Z,20.56
2023-12-18T01:29:44.134Z,20.57
2023-12-18T01:30:12.151Z,20.57
2023-12-18T01:30:26.244Z,20.59
2023-12-18T01:30:40.334Z,20.57
2023-12-18T01:30:54.445Z,20.57
2023-12-18T01:31:22.579Z,20.57
2023-12-18T01:31:36.654Z,20.57
2023-12-18T01:31:50.648Z,20.58
2023-12-18T01:32:04.643Z,20.58
2023-12-18T01:32:32.616Z,20.58
2023-12-18T01:32:46.644Z,20.60
2023-12-18T01:33:00.910Z,20.59
2023-12-18T01:33:15.177Z,20.59
2023-12-18T01:33:43.318Z,20.60
2023-12-18T01:33:57.429Z,20.59
2023-12-18T01:34:11.521Z,20.60
2023-12-18T01:34:25.895Z,20.59
2023-12-18T01:34:53.896Z,20.60
2023-12-18T01:35:07.894Z,20.58
2023-12-18T01:35:21.868Z,20.58
2023-12-18T01:35:35.860Z,20.59
2023-12-18T01:36:03.883Z,20.59
2023-12-18T01:36:17.920Z,20.60
2023-12-18T01:36:31.964Z,20.59
2023-12-18T01:36:45.985Z,20.59
2023-12-18T01:37:13.955Z,20.59
2023-12-18T01:37:27.942Z,20.59
2023-12-18T01:37:42.139Z,20.60
2023-12-18T01:37:56.351Z,20.59
2023-12-18T01:38:24.320Z,20.60
2023-12-18T01:38:38.327Z,20.60
2023-12-18T01:38:52.304Z,20.59
2023-12-18T01:39:06.289Z,20.60
2023-12-18T01:39:34.270Z,20.59
2023-12-18T01:39:48.316Z,20.59
2023-12-18T01:40:02.358Z,20.59
2023-12-18T01:40:16.390Z,20.58
2023-12-18T01:40:44.347Z,20.59
2023-12-18T01:40:58.332Z,20.60
2023-12-18T01:41:12.328Z,20.58
2023-12-18T01:41:26.338Z,20.59
2023-12-18T01:41:54.313Z,20.59
2023-12-18T01:42:08.426Z,20.60
2023-12-18T01:42:22.552Z,20.59
2023-12-18T01:42:36.610Z,20.60
2023-12-18T01:43:04.562Z,20.59
2023-12-18T01:43:18.544Z,20.60
2023-12-18T01:43:32.529Z,20.60
2023-12-18T01:43:46.553Z,20.58
2023-12-18T01:44:14.490Z,20.56
2023-12-18T01:44:28.478Z,20.55
2023-12-18T01:44:42.496Z,20.54
2023-12-18T01:44:56.530Z,20.54
2023-12-18T01:45:24.509Z,20.56
2023-12-18T01:45:38.540Z,20.56
2023-12-18T01:45:52.545Z,20.55
2023-12-18T01:46:06.564Z,20.55
2023-12-18T01:46:20.600Z,20.55
2023-12-18T01:46:34.599Z,20.54
2023-12-18T01:46:48.597Z,20.55
2023-12-18T01:47:02.608Z,20.55
2023-12-18T01:47:16.608Z,20.56
2023-12-18T01:47:44.994Z,20.56
2023-12-18T01:47:59.302Z,20.55
2023-12-18T01:48:13.442Z,20.56
2023-12-18T01:48:27.709Z,20.56
2023-12-18T01:48:56.068Z,20.56
2023-12-18T01:49:10.307Z,20.57
2023-12-18T01:49:24.399Z,20.57
2023-12-18T01:49:38.562Z,20.57
2023-12-18T01:50:06.563Z,20.56
2023-12-18T01:50:20.566Z,20.57
2023-12-18T01:50:34.562Z,20.57
2023-12-18T01:50:48.554Z,20.55
2023-12-18T01:51:16.535Z,20.57
2023-12-18T01:51:30.685Z,20.58
2023-12-18T01:51:44.810Z,20.57
2023-12-18T01:51:58.811Z,20.57
2023-12-18T01:52:26.754Z,20.57
2023-12-18T01:52:40.760Z,20.56
2023-12-18T01:52:54.728Z,20.57
2023-12-18T01:53:08.737Z,20.56
2023-12-18T01:53:36.719Z,20.57
2023-12-18T01:53:50.737Z,20.56
2023-12-18T01:54:04.775Z,20.56
2023-12-18T01:54:18.784Z,20.56
2023-12-18T01:54:32.798Z,20.55
2023-12-18T01:54:46.888Z,20.56
2023-12-18T01:55:00.907Z,20.55
2023-12-18T01:55:14.890Z,20.56
2023-12-18T01:55:28.892Z,20.56
2023-12-18T01:55:56.873Z,20.55
2023-12-18T01:56:10.868Z,20.56
2023-12-18T01:56:24.858Z,20.55
2023-12-18T01:56:38.836Z,20.55
2023-12-18T01:57:06.837Z,20.56
2023-12-18T01:57:21.461Z,20.56
2023-12-18T01:57:35.522Z,20.56
2023-12-18T01:57:49.620Z,20.58
2023-12-18T01:58:17.596Z,20.56
2023-12-18T01:58:31.762Z,20.57
2023-12-18T01:58:45.754Z,20.59
2023-12-18T01:58:59.756Z,20.57
2023-12-18T01:59:27.721Z,20.58
2023-12-18T01:59:41.690Z,20.58
2023-12-18T01:59:55.700Z,20.57
2023-12-18T02:00:09.719Z,20.59
2023-12-18T02:00:37.788Z,20.57
2023-12-18T02:00:51.938Z,20.57
2023-12-18T02:01:06.027Z,20.59
2023-12-18T02:01:20.187Z,20.59
2023-12-18T02:01:48.175Z,20.59
2023-12-18T02:02:02.152Z,20.58
2023-12-18T02:02:16.143Z,20.57
2023-12-18T02:02:30.133Z,20.57
2023-12-18T02:02:58.127Z,20.58
2023-12-18T02:03:12.231Z,20.58
2023-12-18T02:03:26.339Z,20.57
2023-12-18T02:03:40.466Z,20.56
2023-12-18T02:04:08.544Z,20.57
2023-12-18T02:04:22.707Z,20.57
2023-12-18T02:04:36.809Z,20.57
2023-12-18T02:04:50.836Z,20.57
2023-12-18T02:05:18.806Z,20.57
2023-12-18T02:05:32.778Z,20.57
2023-12-18T02:05:46.797Z,20.57
2023-12-18T02:06:00.957Z,20.56
2023-12-18T02:06:29.010Z,20.56
2023-12-18T02:06:43.159Z,20.56
2023-12-18T02:06:57.207Z,20.55
2023-12-18T02:07:11.187Z,20.55
2023-12-18T02:07:39.460Z,20.55
2023-12-18T02:07:53.633Z,20.57
2023-12-18T02:08:07.630Z,20.57
2023-12-18T02:08:22.286Z,20.56
2023-12-18T02:08:50.285Z,20.56
2023-12-18T02:09:04.326Z,20.55
2023-12-18T02:09:18.374Z,20.56
2023-12-18T02:09:32.420Z,20.56
2023-12-18T02:09:46.439Z,20.56
2023-12-18T02:10:00.455Z,20.56
2023-12-18T02:10:14.488Z,20.55
2023-12-18T02:10:28.457Z,20.56
2023-12-18T02:10:42.445Z,20.56
2023-12-18T02:10:56.445Z,20.55
2023-12-18T02:11:10.463Z,20.55
2023-12-18T02:11:24.438Z,20.55
2023-12-18T02:11:52.388Z,20.55
2023-12-18T02:12:06.457Z,20.53
2023-12-18T02:12:20.557Z,20.55
2023-12-18T02:12:34.597Z,20.54
2023-12-18T02:13:02.607Z,20.55
2023-12-18T02:13:16.610Z,20.55
2023-12-18T02:13:30.594Z,20.55
2023-12-18T02:13:44.577Z,20.56
2023-12-18T02:14:12.540Z,20.54
2023-12-18T02:14:26.602Z,20.54
2023-12-18T02:14:40.589Z,20.55
2023-12-18T02:14:54.578Z,20.56
2023-12-18T02:15:22.587Z,20.55
2023-12-18T02:15:36.621Z,20.54
2023-12-18T02:15:50.623Z,20.54
2023-12-18T02:16:04.609Z,20.55
2023-12-18T02:16:32.552Z,20.53
2023-12-18T02:16:46.556Z,20.54
2023-12-18T02:17:00.551Z,20.54
2023-12-18T02:17:14.538Z,20.54
2023-12-18T02:17:42.764Z,20.54
2023-12-18T02:17:56.932Z,20.53
2023-12-18T02:18:11.127Z,20.54
2023-12-18T02:18:25.453Z,20.54
2023-12-18T02:18:53.650Z,20.55
2023-12-18T02:19:07.710Z,20.54
2023-12-18T02:19:21.874Z,20.55
2023-12-18T02:19:36.056Z,20.55
2023-12-18T02:20:04.057Z,20.55
2023-12-18T02:20:18.046Z,20.56
2023-12-18T02:20:32.031Z,20.55
2023-12-18T02:20:46.059Z,20.55
2023-12-18T02:21:14.650Z,20.55
2023-12-18T02:21:28.710Z,20.56
2023-12-18T02:21:42.712Z,20.55
2023-12-18T02:21:56.731Z,20.56
2023-12-18T02:22:24.701Z,20.55
2023-12-18T02:22:38.678Z,20.56
2023-12-18T02:22:52.676Z,20.56
2023-12-18T02:23:06.668Z,20.53
2023-12-18T02:23:20.688Z,20.54
2023-12-18T02:23:34.692Z,20.54
2023-12-18T02:23:48.701Z,20.56
2023-12-18T02:24:02.727Z,20.56
2023-12-18T02:24:16.764Z,20.57
2023-12-18T02:24:44.729Z,20.55
2023-12-18T02:24:59.144Z,20.56
2023-12-18T02:25:13.423Z,20.54
2023-12-18T02:25:28.457Z,20.55
2023-12-18T02:25:54.587Z,20.55
2023-12-18T02:26:08.601Z,20.55
2023-12-18T02:26:22.591Z,20.55
2023-12-18T02:26:36.581Z,20.55
2023-12-18T02:27:04.587Z,20.54
2023-12-18T02:27:18.611Z,20.54
2023-12-18T02:27:32.695Z,20.55
2023-12-18T02:27:47.080Z,20.55
2023-12-18T02:28:15.201Z,20.53
2023-12-18T02:28:29.192Z,20.52
2023-12-18T02:28:43.181Z,20.52
2023-12-18T02:28:57.167Z,20.52
2023-12-18T02:29:25.108Z,20.53
2023-12-18T02:29:39.089Z,20.52
2023-12-18T02:29:53.076Z,20.52
2023-12-18T02:30:07.131Z,20.52
2023-12-18T02:30:35.211Z,20.52
2023-12-18T02:30:49.341Z,20.52
2023-12-18T02:31:03.508Z,20.51
2023-12-18T02:31:17.581Z,20.51
2023-12-18T02:31:45.575Z,20.52
2023-12-18T02:32:00.126Z,20.51
2023-12-18T02:32:14.150Z,20.52
2023-12-18T02:32:28.199Z,20.52
2023-12-18T02:32:56.243Z,20.52
2023-12-18T02:33:10.383Z,20.52
2023-12-18T02:33:24.580Z,20.53
2023-12-18T02:33:38.767Z,20.54
2023-12-18T02:34:06.875Z,20.53
2023-12-18T02:34:21.067Z,20.54
2023-12-18T02:34:35.551Z,20.54
2023-12-18T02:34:49.896Z,20.54
2023-12-18T02:35:17.986Z,20.54
2023-12-18T02:35:32.033Z,20.54
2023-12-18T02:35:46.064Z,20.54
2023-12-18T02:36:00.077Z,20.54
2023-12-18T02:36:28.045Z,20.55
2023-12-18T02:36:42.084Z,20.55
2023-12-18T02:36:56.097Z,20.54
2023-12-18T02:37:10.114Z,20.54
2023-12-18T02:37:38.083Z,20.52
2023-12-18T02:37:52.083Z,20.53
2023-12-18T02:38:06.082Z,20.53
2023-12-18T02:38:20.081Z,20.53
2023-12-18T02:38:48.060Z,20.53
2023-12-18T02:39:02.069Z,20.53
2023-12-18T02:39:16.099Z,20.52
2023-12-18T02:39:30.164Z,20.54
2023-12-18T02:39:58.131Z,20.51
2023-12-18T02:40:12.121Z,20.51
2023-12-18T02:40:26.278Z,20.53
2023-12-18T02:40:40.317Z,20.51
2023-12-18T02:41:08.265Z,20.51
2023-12-18T02:41:22.257Z,20.50
2023-12-18T02:41:36.297Z,20.52
2023-12-18T02:41:50.382Z,20.50
2023-12-18T02:42:18.526Z,20.50
2023-12-18T02:42:32.618Z,20.51
2023-12-18T02:42:46.673Z,20.50
2023-12-18T02:43:00.750Z,20.51
2023-12-18T02:43:29.597Z,20.50
2023-12-18T02:43:43.587Z,20.50
2023-12-18T02:43:57.606Z,20.49
2023-12-18T02:44:11.638Z,20.50
2023-12-18T02:44:39.574Z,20.48
2023-12-18T02:44:53.588Z,20.48
2023-12-18T02:45:07.643Z,20.48
2023-12-18T02:45:21.758Z,20.48
2023-12-18T02:45:49.719Z,20.48
2023-12-18T02:46:03.749Z,20.48
2023-12-18T02:46:17.732Z,20.48
2023-12-18T02:46:31.721Z,20.48
2023-12-18T02:46:59.669Z,20.49
2023-12-18T02:47:13.665Z,20.48
2023-12-18T02:47:27.689Z,20.48
2023-12-18T02:47:42.015Z,20.48
2023-12-18T02:48:10.202Z,20.48
2023-12-18T02:48:24.539Z,20.49
2023-12-18T02:48:38.809Z,20.48
2023-12-18T02:48:52.884Z,20.49
2023-12-18T02:49:20.943Z,20.51
2023-12-18T02:49:35.076Z,20.50
2023-12-18T02:49:49.223Z,20.51
2023-12-18T02:50:03.266Z,20.51
2023-12-18T02:50:31.231Z,20.50
2023-12-18T02:50:45.202Z,20.51
2023-12-18T02:50:59.191Z,20.51
2023-12-18T02:51:13.209Z,20.51
2023-12-18T02:51:41.208Z,20.52
2023-12-18T02:51:55.206Z,20.51
2023-12-18T02:52:09.203Z,20.52
2023-12-18T02:52:23.204Z,20.52
2023-12-18T02:52:51.231Z,20.51
2023-12-18T02:53:05.224Z,20.51
2023-12-18T02:53:19.219Z,20.50
2023-12-18T02:53:33.198Z,20.49
2023-12-18T02:54:01.166Z,20.49
2023-12-18T02:54:15.200Z,20.48
2023-12-18T02:54:29.230Z,20.48
2023-12-18T02:54:43.278Z,20.47
2023-12-18T02:55:11.239Z,20.47
2023-12-18T02:55:25.283Z,20.47
2023-12-18T02:55:39.282Z,20.47
2023-12-18T02:55:53.277Z,20.46
2023-12-18T02:56:21.207Z,20.45
2023-12-18T02:56:35.192Z,20.45
2023-12-18T02:56:49.194Z,20.45
2023-12-18T02:57:03.258Z,20.45
2023-12-18T02:57:17.333Z,20.46
2023-12-18T02:57:31.392Z,20.47
2023-12-18T02:57:45.636Z,20.45
2023-12-18T02:57:59.805Z,20.46
2023-12-18T02:58:13.801Z,20.46
2023-12-18T02:58:41.747Z,20.47
2023-12-18T02:58:55.764Z,20.46
2023-12-18T02:59:09.777Z,20.46
2023-12-18T02:59:23.798Z,20.48
2023-12-18T02:59:51.773Z,20.48
2023-12-18T03:00:05.819Z,20.47
2023-12-18T03:00:19.831Z,20.48
2023-12-18T03:00:33.856Z,20.47
2023-12-18T03:01:01.840Z,20.49
2023-12-18T03:01:15.879Z,20.49
2023-12-18T03:01:29.924Z,20.49
2023-12-18T03:01:43.915Z,20.50
2023-12-18T03:02:11.899Z,20.50
2023-12-18T03:02:25.914Z,20.49
2023-12-18T03:02:39.921Z,20.50
2023-12-18T03:02:53.944Z,20.51
2023-12-18T03:03:22.214Z,20.50
2023-12-18T03:03:36.487Z,20.51
2023-12-18T03:03:50.609Z,20.52
2023-12-18T03:04:04.693Z,20.52
2023-12-18T03:04:32.711Z,20.53
2023-12-18T03:04:46.698Z,20.53
2023-12-18T03:05:00.728Z,20.53
2023-12-18T03:05:14.774Z,20.53
2023-12-18T03:05:42.755Z,20.53
2023-12-18T03:05:56.753Z,20.52
2023-12-18T03:06:10.763Z,20.53
2023-12-18T03:06:24.819Z,20.54
2023-12-18T03:06:52.817Z,20.52
2023-12-18T03:07:06.808Z,20.52
2023-12-18T03:07:20.787Z,20.53
2023-12-18T03:07:34.790Z,20.53
2023-12-18T03:08:02.751Z,20.53
2023-12-18T03:08:16.775Z,20.52
2023-12-18T03:08:30.767Z,20.52
2023-12-18T03:08:44.759Z,20.51
2023-12-18T03:09:12.782Z,20.51
2023-12-18T03:09:26.834Z,20.53
2023-12-18T03:09:40.908Z,20.51
2023-12-18T03:09:54.932Z,20.51
2023-12-18T03:10:08.951Z,20.51
2023-12-18T03:10:22.937Z,20.51
2023-12-18T03:10:36.929Z,20.51
2023-12-18T03:10:50.910Z,20.51
2023-12-18T03:11:04.902Z,20.52
2023-12-18T03:11:32.899Z,20.51
2023-12-18T03:11:46.902Z,20.50
2023-12-18T03:12:00.894Z,20.48
2023-12-18T03:12:14.926Z,20.47
2023-12-18T03:12:42.944Z,20.46
2023-12-18T03:12:56.939Z,20.46
2023-12-18T03:13:10.928Z,20.46
2023-12-18T03:13:24.912Z,20.47
2023-12-18T03:13:52.915Z,20.47
2023-12-18T03:14:06.905Z,20.48
2023-12-18T03:14:20.904Z,20.49
2023-12-18T03:14:34.893Z,20.49
2023-12-18T03:15:02.975Z,20.50
2023-12-18T03:15:17.050Z,20.51
2023-12-18T03:15:31.197Z,20.52
2023-12-18T03:15:45.435Z,20.52
2023-12-18T03:16:13.403Z,20.54
2023-12-18T03:16:27.381Z,20.53
2023-12-18T03:16:41.357Z,20.53
2023-12-18T03:16:55.355Z,20.52
2023-12-18T03:17:23.309Z,20.54
2023-12-18T03:17:37.335Z,20.53
2023-12-18T03:17:51.363Z,20.53
2023-12-18T03:18:05.501Z,20.53
2023-12-18T03:18:33.811Z,20.54
2023-12-18T03:18:48.013Z,20.54
2023-12-18T03:19:02.213Z,20.53
2023-12-18T03:19:16.346Z,20.53
2023-12-18T03:19:44.426Z,20.54
2023-12-18T03:19:58.493Z,20.53
2023-12-18T03:20:12.482Z,20.52
2023-12-18T03:20:26.498Z,20.54
2023-12-18T03:20:54.482Z,20.54
2023-12-18T03:21:08.600Z,20.54
2023-12-18T03:21:22.672Z,20.53
2023-12-18T03:21:36.720Z,20.53
2023-12-18T03:22:04.741Z,20.54
2023-12-18T03:22:18.725Z,20.53
2023-12-18T03:22:32.722Z,20.53
2023-12-18T03:22:46.700Z,20.53
2023-12-18T03:23:14.681Z,20.53
2023-12-18T03:23:28.672Z,20.53
2023-12-18T03:23:42.657Z,20.52
2023-12-18T03:23:56.652Z,20.53
2023-12-18T03:24:24.619Z,20.52
2023-12-18T03:24:38.638Z,20.52
2023-12-18T03:24:52.687Z,20.52
2023-12-18T03:25:06.709Z,20.51
2023-12-18T03:25:34.674Z,20.53
2023-12-18T03:25:48.675Z,20.52
2023-12-18T03:26:02.667Z,20.52
2023-12-18T03:26:16.668Z,20.53
2023-12-18T03:26:44.628Z,20.52
2023-12-18T03:26:58.628Z,20.53
2023-12-18T03:27:12.681Z,20.54
2023-12-18T03:27:26.729Z,20.54
2023-12-18T03:27:41.263Z,20.53
2023-12-18T03:27:55.460Z,20.53
2023-12-18T03:28:09.500Z,20.53
2023-12-18T03:28:23.524Z,20.51
2023-12-18T03:28:37.505Z,20.49
2023-12-18T03:29:05.488Z,20.48
2023-12-18T03:29:19.510Z,20.48
2023-12-18T03:29:33.488Z,20.48
2023-12-18T03:29:47.489Z,20.48
2023-12-18T03:30:15.533Z,20.48
2023-12-18T03:30:29.647Z,20.48
2023-12-18T03:30:43.769Z,20.49
2023-12-18T03:30:57.872Z,20.47
2023-12-18T03:31:25.930Z,20.49
2023-12-18T03:31:40.003Z,20.48
2023-12-18T03:31:54.019Z,20.50
2023-12-18T03:32:08.020Z,20.49
2023-12-18T03:32:36.011Z,20.50
2023-12-18T03:32:50.068Z,20.50
2023-12-18T03:33:04.362Z,20.50
2023-12-18T03:33:18.545Z,20.49
2023-12-18T03:33:46.625Z,20.50
2023-12-18T03:34:00.735Z,20.50
2023-12-18T03:34:14.815Z,20.51
2023-12-18T03:34:29.033Z,20.51
2023-12-18T03:34:57.072Z,20.51
2023-12-18T03:35:11.071Z,20.50
2023-12-18T03:35:25.056Z,20.51
2023-12-18T03:35:39.096Z,20.51
2023-12-18T03:35:53.092Z,20.51
2023-12-18T03:36:07.118Z,20.51
2023-12-18T03:36:21.246Z,20.52
2023-12-18T03:36:35.309Z,20.53
2023-12-18T03:36:49.325Z,20.52
2023-12-18T03:37:17.269Z,20.53
2023-12-18T03:37:31.263Z,20.52
2023-12-18T03:37:45.507Z,20.55
2023-12-18T03:37:59.543Z,20.54
2023-12-18T03:38:27.483Z,20.53
2023-12-18T03:38:41.485Z,20.52
2023-12-18T03:38:55.480Z,20.53
2023-12-18T03:39:09.506Z,20.53
2023-12-18T03:39:37.498Z,20.53
2023-12-18T03:39:51.489Z,20.52
2023-12-18T03:40:05.488Z,20.52
2023-12-18T03:40:19.498Z,20.52
2023-12-18T03:40:47.537Z,20.52
2023-12-18T03:41:01.548Z,20.53
2023-12-18T03:41:15.532Z,20.52
2023-12-18T03:41:29.545Z,20.52
2023-12-18T03:41:57.558Z,20.52
2023-12-18T03:42:11.560Z,20.52